METAR AND TAF INFORMATION
METAR FOR SOCA
ADDS - METARS form results

(2315 UTC 17 February 2020)
Data provider http://aviationweather.gov/metar/data/
 
METAR text: SOCA 172300Z AUTO 06007KT 9000 BKN023 BKN029 OVC035 27/23 Q1012
Conditions at: SOCA (CAYENNE/ROCHAMBE, GY) observed 2300 UTC 17 February 2020
Temperature: 27.0°C (81°F)
Dewpoint: 23.0°C (73°F) [RH = 79%]
Pressure (altimeter): 29.88 inches Hg (1012.0 mb)
Winds: from the ENE (60 degrees) at 8 MPH (7 knots; 3.6 m/s)
Visibility: 6 miles ( 9 km)
Ceiling: 2300 feet AGL
Clouds: broken clouds at 2300 feet AGL
broken clouds at 2900 feet AGL
overcast cloud deck at 3500 feet AGL
Weather: no significant weather observed at this time

METAR text: SOCA 172230Z AUTO 07006KT 9000 BKN024 OVC034 27/23 Q1011 TEMPO SHRA FEW012TCU
Conditions at: SOCA (CAYENNE/ROCHAMBE, GY) observed 2230 UTC 17 February 2020
Temperature: 27.0°C (81°F)
Dewpoint: 23.0°C (73°F) [RH = 79%]
Pressure (altimeter): 29.85 inches Hg (1011.0 mb)
Winds: from the ENE (70 degrees) at 7 MPH (6 knots; 3.1 m/s)
Visibility: 6 miles ( 9 km)
Ceiling: 2400 feet AGL
Clouds: broken clouds at 2400 feet AGL
overcast cloud deck at 3400 feet AGL
Weather: no significant weather observed at this time

Forecast for: SOCA (CAYENNE/ROCHAMBE, GY)
Text: TAF SOCA 172200Z 1800/1824 06006KT 9999 SCT020 BKN045
Forecast period: 0000 to 1300 UTC 18 February 2020
Forecast type: FROM: standard forecast or significant change
Winds: from the ENE (60 degrees) at 7 MPH (6 knots; 3.1 m/s)
Visibility: 6 or more miles 10+ km)
Ceiling: 4500 feet AGL
Clouds: scattered clouds at 2000 feet AGL
broken clouds at 4500 feet AGL
Weather: no significant weather forecast for this period
Text: FM181300 06014KT 9999 SCT025 SCT045
Forecast period: 1300 UTC 18 February 2020 to 0000 UTC 19 February 2020
Forecast type: FROM: standard forecast or significant change
Winds: from the ENE (60 degrees) at 16 MPH (14 knots; 7.2 m/s)
Visibility: 6 or more miles 10+ km)
Ceiling: at least 12,000 feet AGL
Clouds: scattered clouds at 2500 feet AGL
scattered clouds at 4500 feet AGL
Weather: no significant weather forecast for this period
Text: PROB30
Forecast period: 0000 UTC 18 February 2020 to 0000 UTC 19 February 2020
Forecast type: TEMPORARY: The following changes expected for less than half the time period
Visibility: missing
Ceiling: at least 12,000 feet AGL
Clouds: few clouds at 1200 feet AGL
Weather: SHRA  (rain showers)

 AIRPORT MAP

 RUNWAY INFORMATION
Runway 08 Runway length 10486 ft Runway width 148 ft
Runway elevation 18 ft Runway displaced threshold 0 ft Runway heading 65
Runway 26 Runway length 10486 ft Runway width 148 ft
Runway elevation 25 ft Runway displaced threshold 0 ft Runway heading 245

 AIRPORT FREQUENCIES
Type APP Name APP Frequency 119.9 MHZ
Type ATIS Name ATIS Frequency 132.2 MHZ
Type TWR Name TWR Frequency 118.1 MHZ

 AIRPORT NEAR NAVIGATION AIDS
Type VOR-DME Name Cayenne Frequency 115950 KHZ
Type NDB Name Cayenne Frequency 327 KHZ